Time;durP1;ratioP1;P1;durP2;ratioP2;P2;SDS_P1;SDS_P2;PMS_P1;PMS_P2;Temp;Humidity;BMP_temperature;BMP_pressure;BME280_temperature;BME280_humidity;BME280_pressure;Samples;Min_cycle;Max_cycle;Signal;HPM_P1;HPM_P2
2023/03/10 00:01:10;;;;;;;0.60;0.60;;;;;8.20;94036.00;;;;5032769;28;20216;-59
2023/03/10 00:03:39;;;;;;;0.70;0.70;;;;;8.10;94019.00;;;;5032769;28;20205;-58
2023/03/10 00:06:07;;;;;;;0.93;0.93;;;;;8.00;94020.00;;;;5033176;28;20197;-58
2023/03/10 00:08:35;;;;;;;0.77;0.77;;;;;8.00;94021.00;;;;5032738;28;20201;-59
2023/03/10 00:11:03;;;;;;;1.10;1.10;;;;;8.00;94004.00;;;;5032569;28;20288;-59
2023/03/10 00:13:30;;;;;;;0.50;0.50;;;;;8.10;94004.00;;;;5032925;28;20533;-59
2023/03/10 00:15:57;;;;;;;0.50;0.50;;;;;8.00;94000.00;;;;5033425;28;20192;-58
2023/03/10 00:18:25;;;;;;;0.80;0.80;;;;;8.10;94004.00;;;;5032619;28;20251;-58
2023/03/10 00:20:54;;;;;;;0.60;0.60;;;;;8.00;93987.00;;;;5032575;28;20279;-58
2023/03/10 00:23:22;;;;;;;0.70;0.70;;;;;8.00;93993.00;;;;5032540;28;20205;-58
2023/03/10 00:25:55;;;;;;;0.70;0.70;;;;;8.00;93983.00;;;;5033040;28;20204;-58
2023/03/10 00:28:22;;;;;;;0.90;0.90;;;;;8.00;93975.00;;;;5032640;28;20216;-59
2023/03/10 00:30:58;;;;;;;0.80;0.80;;;;;8.00;93968.00;;;;5032732;28;20573;-59
2023/03/10 00:33:25;;;;;;;0.70;0.70;;;;;8.00;93972.00;;;;5014941;28;20183;-59
2023/03/10 00:36:04;;;;;;;0.53;0.53;;;;;8.00;93963.00;;;;5032923;28;20282;-59
2023/03/10 00:38:31;;;;;;;0.60;0.60;;;;;8.00;93971.00;;;;5032801;28;20683;-57
2023/03/10 00:40:59;;;;;;;0.60;0.60;;;;;8.10;93960.00;;;;5034446;28;20220;-59
2023/03/10 00:43:27;;;;;;;0.97;0.97;;;;;8.00;93970.00;;;;5036299;28;20245;-59
2023/03/10 00:45:55;;;;;;;0.63;0.63;;;;;8.10;93966.00;;;;5036370;28;20205;-57
2023/03/10 00:48:22;;;;;;;0.77;0.77;;;;;7.70;93961.00;;;;5035956;28;20664;-58
2023/03/10 00:50:50;;;;;;;0.70;0.70;;;;;7.70;93959.00;;;;5035909;28;20270;-58
2023/03/10 00:53:19;;;;;;;0.93;0.93;;;;;7.70;93956.00;;;;5036284;28;20188;-59
2023/03/10 00:55:58;;;;;;;0.60;0.60;;;;;7.70;93956.00;;;;5036237;28;20199;-58
2023/03/10 00:58:26;;;;;;;1.73;1.60;;;;;7.90;93952.00;;;;5036010;28;20268;-59
2023/03/10 01:00:54;;;;;;;0.57;0.57;;;;;7.80;93952.00;;;;5035703;28;20286;-59
2023/03/10 01:03:22;;;;;;;0.70;0.70;;;;;7.90;93950.00;;;;5035687;28;20299;-60
2023/03/10 01:05:50;;;;;;;0.60;0.60;;;;;7.70;93953.00;;;;5036266;28;20726;-59
2023/03/10 01:08:19;;;;;;;0.90;0.90;;;;;7.80;93943.00;;;;5035982;28;20200;-58
2023/03/10 01:10:47;;;;;;;0.60;0.60;;;;;7.80;93937.00;;;;5035357;28;20778;-60
2023/03/10 01:13:16;;;;;;;0.60;0.60;;;;;7.90;93949.00;;;;5035486;28;20189;-59
2023/03/10 01:15:46;;;;;;;1.17;0.97;;;;;7.90;93934.00;;;;5035825;28;20279;-59
2023/03/10 01:18:14;;;;;;;0.73;0.73;;;;;8.00;93931.00;;;;5035426;28;20259;-58
2023/03/10 01:20:42;;;;;;;0.60;0.60;;;;;8.00;93923.00;;;;5035372;28;20267;-58
2023/03/10 01:23:15;;;;;;;0.70;0.70;;;;;7.90;93921.00;;;;5035777;28;20212;-59
2023/03/10 01:25:44;;;;;;;0.70;0.70;;;;;7.80;93914.00;;;;5035990;28;20267;-60
2023/03/10 01:28:12;;;;;;;0.80;0.80;;;;;7.80;93930.00;;;;5035314;28;20734;-57
2023/03/10 01:30:40;;;;;;;0.70;0.70;;;;;7.70;93919.00;;;;5035223;28;20220;-59
2023/03/10 01:33:08;;;;;;;0.60;0.60;;;;;7.80;93928.00;;;;5035449;28;20193;-60
2023/03/10 01:35:36;;;;;;;0.50;0.50;;;;;7.90;93931.00;;;;5035207;28;20193;-61
2023/03/10 01:38:04;;;;;;;0.70;0.70;;;;;7.90;93944.00;;;;5035649;28;20192;-59
2023/03/10 01:40:32;;;;;;;0.50;0.50;;;;;7.90;93914.00;;;;5035346;28;20228;-60
2023/03/10 01:43:28;;;;;;;0.60;0.60;;;;;7.70;93931.00;;;;5034953;28;20220;-58
2023/03/10 01:46:46;;;;;;;0.80;0.80;;;;;7.80;93934.00;;;;5017968;28;20616;-60
2023/03/10 01:49:19;;;;;;;0.60;0.60;;;;;7.80;93912.00;;;;5002894;28;20240;-60
2023/03/10 01:51:51;;;;;;;0.60;0.60;;;;;7.90;93905.00;;;;5034766;28;20246;-59
2023/03/10 01:54:24;;;;;;;0.60;0.60;;;;;7.90;93916.00;;;;5035357;28;20200;-59
2023/03/10 01:56:54;;;;;;;0.60;0.60;;;;;7.80;93901.00;;;;5036028;28;20189;-59
2023/03/10 01:59:23;;;;;;;0.60;0.60;;;;;7.90;93905.00;;;;5034799;28;20209;-60
2023/03/10 02:01:51;;;;;;;0.53;0.53;;;;;7.90;93907.00;;;;5034748;28;20207;-58
2023/03/10 02:04:26;;;;;;;0.60;0.60;;;;;7.80;93891.00;;;;5034515;28;20266;-58
2023/03/10 02:06:55;;;;;;;0.50;0.50;;;;;7.70;93892.00;;;;5035003;28;20188;-58
2023/03/10 02:09:24;;;;;;;0.80;0.80;;;;;7.60;93894.00;;;;5034664;28;20281;-57
2023/03/10 02:11:52;;;;;;;0.60;0.60;;;;;7.70;93901.00;;;;5034747;28;20248;-59
2023/03/10 02:14:20;;;;;;;1.03;1.03;;;;;7.70;93891.00;;;;5034426;28;20196;-59
2023/03/10 02:16:49;;;;;;;0.80;0.80;;;;;7.60;93882.00;;;;5034677;28;20204;-60
2023/03/10 02:19:37;;;;;;;0.70;0.70;;;;;7.70;93887.00;;;;5035145;28;20216;-59
2023/03/10 02:22:07;;;;;;;0.60;0.60;;;;;7.60;93879.00;;;;5016587;28;20262;-59
2023/03/10 02:24:43;;;;;;;0.70;0.70;;;;;7.60;93883.00;;;;5034216;28;20228;-60
2023/03/10 02:27:21;;;;;;;0.60;0.60;;;;;7.60;93883.00;;;;5034455;28;20243;-60
2023/03/10 02:29:53;;;;;;;0.60;0.60;;;;;7.60;93886.00;;;;5034227;28;20212;-58
2023/03/10 02:32:22;;;;;;;0.60;0.60;;;;;7.80;93891.00;;;;5034441;28;20184;-60
2023/03/10 02:34:49;;;;;;;0.50;0.50;;;;;7.80;93890.00;;;;5034697;28;20279;-60
2023/03/10 02:37:22;;;;;;;0.50;0.50;;;;;7.70;93877.00;;;;5034056;28;20189;-60
2023/03/10 02:39:49;;;;;;;0.70;0.70;;;;;7.80;93867.00;;;;5034179;28;20216;-58
2023/03/10 02:42:19;;;;;;;0.63;0.63;;;;;7.80;93852.00;;;;5034001;28;20228;-60
2023/03/10 02:44:47;;;;;;;0.60;0.60;;;;;7.80;93841.00;;;;5034354;28;20223;-61
2023/03/10 02:47:15;;;;;;;0.60;0.60;;;;;7.90;93844.00;;;;5033926;28;20192;-61
2023/03/10 02:49:43;;;;;;;0.50;0.50;;;;;7.80;93843.00;;;;5034046;28;20220;-59
2023/03/10 02:52:19;;;;;;;0.60;0.60;;;;;7.90;93842.00;;;;5033976;28;20201;-58
2023/03/10 02:54:47;;;;;;;0.60;0.60;;;;;7.80;93843.00;;;;5033746;28;20205;-60
2023/03/10 02:57:16;;;;;;;0.63;0.63;;;;;7.80;93849.00;;;;5034742;28;20600;-59
2023/03/10 02:59:44;;;;;;;0.50;0.50;;;;;7.80;93845.00;;;;5033929;28;20267;-59
2023/03/10 03:02:11;;;;;;;0.70;0.70;;;;;7.80;93845.00;;;;5015891;28;20196;-59
2023/03/10 03:04:38;;;;;;;0.83;0.83;;;;;7.70;93847.00;;;;5033373;28;20216;-58
2023/03/10 03:07:06;;;;;;;0.60;0.60;;;;;7.70;93818.00;;;;5033639;28;20257;-59
2023/03/10 03:09:34;;;;;;;0.80;0.80;;;;;7.90;93827.00;;;;5034026;28;20235;-58
2023/03/10 03:12:01;;;;;;;0.60;0.60;;;;;7.90;93826.00;;;;5033341;28;20231;-59
2023/03/10 03:14:30;;;;;;;0.60;0.60;;;;;7.90;93828.00;;;;5033367;28;20195;-59
2023/03/10 03:16:57;;;;;;;0.70;0.70;;;;;8.00;93814.00;;;;5033354;28;20196;-60
2023/03/10 03:19:24;;;;;;;0.60;0.60;;;;;7.90;93809.00;;;;5034306;28;20224;-59
2023/03/10 03:21:52;;;;;;;0.50;0.50;;;;;7.90;93801.00;;;;5033372;28;20197;-58
2023/03/10 03:24:20;;;;;;;0.90;0.90;;;;;8.00;93793.00;;;;5033210;28;20221;-59
2023/03/10 03:26:48;;;;;;;0.50;0.50;;;;;7.90;93784.00;;;;5033286;28;20217;-57
2023/03/10 03:29:16;;;;;;;0.60;0.60;;;;;7.90;93784.00;;;;5033037;28;20220;-59
2023/03/10 03:31:45;;;;;;;0.60;0.60;;;;;8.00;93786.00;;;;5033173;28;20200;-58
2023/03/10 03:34:14;;;;;;;0.60;0.60;;;;;8.10;93794.00;;;;5033611;28;20193;-59
2023/03/10 03:36:41;;;;;;;0.90;0.90;;;;;8.00;93774.00;;;;5033354;28;20246;-59
2023/03/10 03:39:09;;;;;;;0.83;0.83;;;;;8.00;93775.00;;;;5033508;28;20341;-59
2023/03/10 03:41:36;;;;;;;0.60;0.60;;;;;8.10;93767.00;;;;5033168;28;20199;-59
2023/03/10 03:44:04;;;;;;;0.60;0.60;;;;;8.00;93761.00;;;;5015340;28;20311;-59
2023/03/10 03:46:31;;;;;;;0.60;0.60;;;;;8.00;93788.00;;;;5033380;28;20226;-60
2023/03/10 03:49:01;;;;;;;0.50;0.50;;;;;7.80;93773.00;;;;5033295;28;20220;-60
2023/03/10 03:51:28;;;;;;;0.60;0.60;;;;;7.80;93782.00;;;;5033380;28;20227;-59
2023/03/10 03:53:55;;;;;;;0.50;0.50;;;;;7.90;93774.00;;;;5032906;28;20188;-58
2023/03/10 03:56:23;;;;;;;0.60;0.60;;;;;7.80;93778.00;;;;5033363;28;20699;-59
2023/03/10 03:58:50;;;;;;;0.60;0.60;;;;;7.80;93767.00;;;;5033161;28;20591;-59
2023/03/10 04:01:18;;;;;;;0.60;0.60;;;;;7.70;93753.00;;;;5033182;28;20203;-58
2023/03/10 04:03:45;;;;;;;0.60;0.60;;;;;7.80;93755.00;;;;5032671;28;20224;-59
2023/03/10 04:06:14;;;;;;;0.70;0.70;;;;;7.90;93741.00;;;;5033335;28;20250;-59
2023/03/10 04:08:42;;;;;;;0.60;0.60;;;;;7.90;93750.00;;;;5032942;28;20201;-58
2023/03/10 04:11:09;;;;;;;0.67;0.67;;;;;7.90;93750.00;;;;5032679;28;20196;-59
2023/03/10 04:13:37;;;;;;;0.60;0.60;;;;;7.80;93741.00;;;;5032833;28;20243;-59
2023/03/10 04:16:05;;;;;;;0.70;0.70;;;;;7.80;93751.00;;;;5034492;28;20192;-60
2023/03/10 04:18:32;;;;;;;0.60;0.60;;;;;7.80;93747.00;;;;5036729;28;20189;-60
2023/03/10 04:21:00;;;;;;;0.77;0.77;;;;;7.80;93747.00;;;;5037085;28;20691;-59
2023/03/10 04:23:28;;;;;;;0.60;0.60;;;;;7.70;93757.00;;;;5036516;28;20212;-59
2023/03/10 04:25:56;;;;;;;0.70;0.70;;;;;7.60;93764.00;;;;5036502;28;20208;-59
2023/03/10 04:28:23;;;;;;;0.60;0.60;;;;;7.70;93758.00;;;;5036733;28;20548;-59
2023/03/10 04:30:52;;;;;;;0.73;0.73;;;;;7.90;93758.00;;;;5036630;28;20213;-59
2023/03/10 04:33:19;;;;;;;0.80;0.80;;;;;7.80;93755.00;;;;5036358;28;20200;-59
2023/03/10 04:35:47;;;;;;;0.93;0.93;;;;;7.80;93750.00;;;;5036601;28;20603;-60
2023/03/10 04:38:15;;;;;;;0.60;0.60;;;;;7.90;93759.00;;;;5036339;28;20254;-60
2023/03/10 04:40:44;;;;;;;0.60;0.60;;;;;7.80;93762.00;;;;5036589;28;20700;-60
2023/03/10 04:43:11;;;;;;;0.60;0.60;;;;;7.90;93749.00;;;;5036180;28;20196;-59
2023/03/10 04:45:38;;;;;;;1.00;1.00;;;;;7.70;93717.00;;;;5036132;28;20197;-60
2023/03/10 04:48:07;;;;;;;0.60;0.60;;;;;7.80;93727.00;;;;5036132;28;20193;-60
2023/03/10 04:50:34;;;;;;;0.57;0.57;;;;;7.70;93724.00;;;;5036224;28;20563;-61
2023/03/10 04:53:02;;;;;;;0.67;0.67;;;;;7.70;93730.00;;;;5018676;28;20258;-58
2023/03/10 04:55:29;;;;;;;1.90;1.27;;;;;7.70;93726.00;;;;5035938;28;20192;-58
2023/03/10 04:57:58;;;;;;;0.60;0.60;;;;;7.80;93717.00;;;;5035867;28;20192;-59
2023/03/10 05:00:25;;;;;;;0.60;0.60;;;;;7.80;93727.00;;;;5035950;28;20270;-59
2023/03/10 05:02:53;;;;;;;0.60;0.60;;;;;7.90;93725.00;;;;5036388;28;20525;-58
2023/03/10 05:05:20;;;;;;;0.60;0.60;;;;;7.80;93713.00;;;;5035661;28;20274;-59
2023/03/10 05:07:48;;;;;;;0.60;0.60;;;;;7.70;93707.00;;;;5035652;28;20660;-60
2023/03/10 05:10:15;;;;;;;0.93;0.70;;;;;7.70;93714.00;;;;5035590;28;20278;-60
2023/03/10 05:12:43;;;;;;;0.63;0.63;;;;;7.70;93714.00;;;;5036115;28;20189;-59
2023/03/10 05:15:12;;;;;;;0.50;0.50;;;;;7.70;93698.00;;;;5035667;28;20686;-59
2023/03/10 05:17:39;;;;;;;3.40;0.97;;;;;7.70;93692.00;;;;5035763;28;20556;-58
2023/03/10 05:20:08;;;;;;;0.60;0.60;;;;;7.80;93696.00;;;;5035383;28;20300;-59
2023/03/10 05:22:36;;;;;;;1.57;1.47;;;;;7.60;93688.00;;;;5019093;28;20200;-58
2023/03/10 05:25:04;;;;;;;0.63;0.63;;;;;7.50;93695.00;;;;5035540;28;20213;-58
2023/03/10 05:27:33;;;;;;;0.63;0.63;;;;;7.60;93689.00;;;;5034251;28;20193;-59
2023/03/10 05:30:00;;;;;;;0.70;0.70;;;;;7.80;93712.00;;;;5035301;28;20220;-59
2023/03/10 05:32:29;;;;;;;0.60;0.60;;;;;7.80;93711.00;;;;5036247;28;20207;-58
2023/03/10 05:34:57;;;;;;;0.60;0.60;;;;;7.70;93712.00;;;;5035773;28;20311;-58
2023/03/10 05:37:24;;;;;;;0.60;0.60;;;;;7.80;93716.00;;;;5035197;28;20605;-58
2023/03/10 05:39:52;;;;;;;0.50;0.50;;;;;7.80;93710.00;;;;5035015;28;20341;-58
2023/03/10 05:42:19;;;;;;;0.93;0.93;;;;;7.80;93705.00;;;;5035392;28;20204;-57
2023/03/10 05:44:47;;;;;;;0.50;0.50;;;;;7.90;93708.00;;;;5017212;28;20224;-58
2023/03/10 05:47:17;;;;;;;0.73;0.73;;;;;7.90;93695.00;;;;5017213;28;20656;-59
2023/03/10 05:49:46;;;;;;;0.60;0.60;;;;;7.80;93688.00;;;;5034953;28;20216;-59
2023/03/10 05:52:13;;;;;;;0.60;0.60;;;;;7.60;93685.00;;;;5035510;28;20193;-59
2023/03/10 05:54:41;;;;;;;0.60;0.60;;;;;7.70;93696.00;;;;5034856;28;20235;-58
2023/03/10 05:57:08;;;;;;;1.00;1.00;;;;;7.80;93698.00;;;;5035055;28;20547;-58
2023/03/10 05:59:36;;;;;;;1.10;1.10;;;;;7.70;93700.00;;;;5034568;28;20212;-59
2023/03/10 06:02:03;;;;;;;0.80;0.80;;;;;7.70;93690.00;;;;5034929;28;20250;-59
2023/03/10 06:04:32;;;;;;;0.60;0.60;;;;;7.70;93693.00;;;;5017112;28;20674;-58
2023/03/10 06:07:01;;;;;;;0.60;0.60;;;;;7.50;93701.00;;;;5034605;28;20201;-58
2023/03/10 06:09:31;;;;;;;0.70;0.70;;;;;7.40;93700.00;;;;5034489;28;20220;-59
2023/03/10 06:11:59;;;;;;;0.60;0.60;;;;;7.40;93689.00;;;;5034830;28;20181;-59
2023/03/10 06:14:27;;;;;;;0.60;0.60;;;;;7.40;93659.00;;;;5034475;28;20197;-59
2023/03/10 06:16:55;;;;;;;0.60;0.60;;;;;7.40;93632.00;;;;5035184;28;20199;-59
2023/03/10 06:19:23;;;;;;;0.63;0.63;;;;;7.30;93630.00;;;;5034906;28;20216;-60
2023/03/10 06:21:51;;;;;;;0.60;0.60;;;;;7.20;93647.00;;;;5034461;28;20196;-60
2023/03/10 06:24:19;;;;;;;0.60;0.60;;;;;7.20;93635.00;;;;5035569;28;20224;-59
2023/03/10 06:26:47;;;;;;;0.50;0.50;;;;;7.20;93640.00;;;;5034257;28;20203;-59
2023/03/10 06:29:14;;;;;;;0.47;0.47;;;;;7.20;93646.00;;;;5034004;28;20220;-59
2023/03/10 06:31:41;;;;;;;0.50;0.50;;;;;7.30;93639.00;;;;5034097;28;20695;-59
2023/03/10 06:34:09;;;;;;;0.60;0.60;;;;;7.40;93640.00;;;;5034543;28;20326;-59
2023/03/10 06:36:39;;;;;;;0.60;0.60;;;;;7.20;93648.00;;;;5016301;28;20263;-59
2023/03/10 06:39:06;;;;;;;0.50;0.50;;;;;7.20;93632.00;;;;5033659;28;20216;-59
2023/03/10 06:41:37;;;;;;;0.50;0.50;;;;;7.20;93623.00;;;;5033983;28;20193;-59
2023/03/10 06:44:04;;;;;;;0.60;0.60;;;;;7.30;93634.00;;;;5016546;28;20243;-59
2023/03/10 06:46:32;;;;;;;0.60;0.60;;;;;7.30;93628.00;;;;5034190;28;20675;-59
2023/03/10 06:48:59;;;;;;;0.53;0.53;;;;;7.40;93638.00;;;;5033760;28;20203;-60
2023/03/10 06:51:26;;;;;;;0.60;0.60;;;;;7.30;93632.00;;;;5016104;28;20251;-59
2023/03/10 06:53:56;;;;;;;0.60;0.60;;;;;7.20;93634.00;;;;5034153;28;20263;-59
2023/03/10 06:56:23;;;;;;;0.60;0.60;;;;;7.30;93628.00;;;;5033726;28;20228;-59
2023/03/10 06:58:52;;;;;;;0.60;0.60;;;;;7.40;93614.00;;;;5033516;28;20184;-59
2023/03/10 07:01:23;;;;;;;0.60;0.60;;;;;7.40;93617.00;;;;5033893;28;20195;-58
2023/03/10 07:03:51;;;;;;;0.60;0.60;;;;;7.40;93615.00;;;;5015848;28;20340;-59
2023/03/10 07:06:18;;;;;;;0.60;0.60;;;;;7.50;93608.00;;;;5034118;28;20228;-58
2023/03/10 07:08:46;;;;;;;0.70;0.70;;;;;7.30;93607.00;;;;5033488;28;20239;-58
2023/03/10 07:11:14;;;;;;;0.60;0.60;;;;;7.50;93624.00;;;;5033316;28;20204;-59
2023/03/10 07:13:42;;;;;;;0.50;0.50;;;;;7.30;93636.00;;;;5033347;28;20200;-58
2023/03/10 07:16:10;;;;;;;0.50;0.50;;;;;7.50;93620.00;;;;5033925;28;20200;-59
2023/03/10 07:18:38;;;;;;;0.63;0.63;;;;;7.40;93639.00;;;;5033401;28;20250;-62
2023/03/10 07:21:08;;;;;;;0.60;0.60;;;;;7.60;93649.00;;;;5033269;28;20300;-62
2023/03/10 07:23:36;;;;;;;0.63;0.63;;;;;7.50;93645.00;;;;5033650;28;20250;-60
2023/03/10 07:26:06;;;;;;;0.60;0.60;;;;;7.50;93640.00;;;;5051298;28;20219;-59
2023/03/10 07:28:35;;;;;;;0.50;0.50;;;;;7.70;93637.00;;;;5045663;28;20645;-60
2023/03/10 07:31:03;;;;;;;0.60;0.60;;;;;7.70;93643.00;;;;5047435;28;20276;-61
2023/03/10 07:33:32;;;;;;;0.60;0.60;;;;;7.60;93650.00;;;;5051103;28;20277;-61
2023/03/10 07:36:03;;;;;;;0.60;0.60;;;;;7.50;93669.00;;;;5051328;28;20550;-63
2023/03/10 07:38:31;;;;;;;0.60;0.60;;;;;7.30;93660.00;;;;5041128;28;20203;-59
2023/03/10 07:40:58;;;;;;;0.60;0.60;;;;;7.40;93651.00;;;;5043267;28;20218;-60
2023/03/10 07:43:26;;;;;;;0.73;0.73;;;;;7.30;93653.00;;;;5051031;28;20210;-60
2023/03/10 07:45:53;;;;;;;0.50;0.50;;;;;7.10;93658.00;;;;5051321;28;20229;-58
2023/03/10 07:48:23;;;;;;;0.60;0.60;;;;;7.00;93664.00;;;;5050873;28;20245;-59
2023/03/10 07:50:58;;;;;;;0.50;0.50;;;;;7.20;93699.00;;;;5052381;28;20227;-60
2023/03/10 07:53:26;;;;;;;0.53;0.53;;;;;7.10;93690.00;;;;5018412;28;20670;-59
2023/03/10 07:55:53;;;;;;;0.80;0.80;;;;;6.80;93706.00;;;;5035392;28;20247;-60
2023/03/10 07:58:21;;;;;;;0.50;0.50;;;;;6.70;93696.00;;;;5035402;28;20207;-59
2023/03/10 08:00:55;;;;;;;0.60;0.60;;;;;6.90;93715.00;;;;5034775;28;20290;-59
2023/03/10 08:03:23;;;;;;;0.60;0.60;;;;;6.80;93698.00;;;;5035684;28;20196;-59
2023/03/10 08:05:50;;;;;;;0.50;0.50;;;;;7.10;93697.00;;;;5017611;28;20261;-60
2023/03/10 08:08:19;;;;;;;0.50;0.50;;;;;7.20;93707.00;;;;5035449;28;20318;-60
2023/03/10 08:10:47;;;;;;;0.50;0.50;;;;;7.20;93712.00;;;;5030341;28;20246;-60
2023/03/10 08:13:14;;;;;;;1.00;1.00;;;;;7.10;93702.00;;;;5050656;28;20203;-60
2023/03/10 08:15:42;;;;;;;0.60;0.60;;;8.00;99.90;7.10;93706.00;;;;5052952;28;20204;-60
2023/03/10 08:18:09;;;;;;;1.90;1.50;;;7.80;99.90;7.20;93701.00;;;;5035115;28;20207;-60
2023/03/10 08:20:39;;;;;;;0.80;0.80;;;7.90;99.90;7.30;93710.00;;;;5034211;28;20280;-60
2023/03/10 08:23:06;;;;;;;0.63;0.63;;;7.90;99.90;7.30;93729.00;;;;5035148;28;20551;-60
2023/03/10 08:25:34;;;;;;;0.73;0.73;;;8.10;99.90;7.30;93705.00;;;;5034544;28;20273;-60
2023/03/10 08:28:01;;;;;;;0.60;0.60;;;8.00;99.90;7.40;93704.00;;;;5031497;28;20196;-60
2023/03/10 08:30:28;;;;;;;0.60;0.60;;;8.10;99.90;7.70;93706.00;;;;5033940;28;20224;-58
2023/03/10 08:32:56;;;;;;;0.60;0.60;;;;;7.50;93715.00;;;;5039854;28;20192;-59
2023/03/10 08:35:23;;;;;;;0.60;0.60;;;8.30;95.10;7.60;93701.00;;;;5054364;28;20200;-60
2023/03/10 08:37:52;;;;;;;0.50;0.50;;;8.20;95.90;7.60;93692.00;;;;5054209;28;20544;-59
2023/03/10 08:40:21;;;;;;;0.57;0.57;;;8.20;95.90;7.50;93686.00;;;;5054228;28;20310;-59
2023/03/10 08:42:50;;;;;;;0.67;0.67;;;8.20;97.30;7.80;93684.00;;;;5053098;28;20203;-60
2023/03/10 08:45:18;;;;;;;0.57;0.57;;;8.40;99.10;8.10;93689.00;;;;5034440;28;20250;-60
2023/03/10 08:47:45;;;;;;;0.53;0.53;;;8.70;97.20;8.50;93690.00;;;;5034857;28;20560;-59
2023/03/10 08:50:12;;;;;;;0.50;0.50;;;;;8.60;93701.00;;;;5034433;28;20220;-59
2023/03/10 08:52:40;;;;;;;0.53;0.53;;;;;8.40;93698.00;;;;5033635;28;20201;-60
2023/03/10 08:55:09;;;;;;;0.57;0.57;;;;;8.00;93709.00;;;;5034114;28;20708;-59
2023/03/10 08:57:36;;;;;;;0.67;0.67;;;;;8.00;93705.00;;;;5045656;28;20192;-59
2023/03/10 09:00:07;;;;;;;0.90;0.90;;;;;8.20;93715.00;;;;5054033;28;20574;-60
2023/03/10 09:02:34;;;;;;;0.57;0.57;;;;;8.10;93704.00;;;;5053399;28;20192;-59
2023/03/10 09:05:02;;;;;;;0.60;0.60;;;;;8.30;93712.00;;;;5052757;28;20658;-59
2023/03/10 09:07:29;;;;;;;0.50;0.50;;;;;8.30;93701.00;;;;5035424;28;20233;-60
2023/03/10 09:09:57;;;;;;;0.60;0.60;;;;;8.50;93709.00;;;;5053816;28;20232;-59
2023/03/10 09:12:25;;;;;;;0.83;0.83;;;;;8.60;93720.00;;;;5053162;28;20651;-59
2023/03/10 09:14:52;;;;;;;0.77;0.73;;;;;8.80;93721.00;;;;5054038;28;20532;-58
2023/03/10 09:17:21;;;;;;;0.77;0.77;;;;;8.70;93718.00;;;;5053218;28;20196;-59
2023/03/10 09:19:48;;;;;;;0.60;0.60;;;;;9.00;93718.00;;;;5053337;28;20302;-59
2023/03/10 09:22:16;;;;;;;2.00;0.97;;;;;8.40;93727.00;;;;5053408;28;20192;-59
2023/03/10 09:24:44;;;;;;;0.60;0.60;;;;;9.00;93731.00;;;;5052516;28;20196;-60
2023/03/10 09:27:11;;;;;;;0.83;0.83;;;;;8.80;93751.00;;;;5052627;28;20196;-60
2023/03/10 09:29:39;;;;;;;0.60;0.60;;;;;8.90;93731.00;;;;5053592;28;20235;-59
2023/03/10 09:32:07;;;;;;;0.50;0.50;;;;;8.90;93729.00;;;;5045982;28;20219;-59
2023/03/10 09:34:36;;;;;;;0.50;0.50;;;;;9.00;93725.00;;;;5033429;28;20197;-59
2023/03/10 09:37:04;;;;;;;0.60;0.60;;;;;9.30;93727.00;;;;5033337;28;20208;-59
2023/03/10 09:39:31;;;;;;;0.57;0.57;;;;;9.20;93729.00;;;;5033654;28;20633;-59
2023/03/10 09:42:14;;;;;;;0.50;0.50;;;;;9.10;93726.00;;;;5041039;28;20698;-59
2023/03/10 09:44:48;;;;;;;0.50;0.50;;;;;9.00;93734.00;;;;5029969;28;20193;-60
2023/03/10 09:47:33;;;;;;;0.50;0.50;;;;;9.00;93752.00;;;;5032841;28;20189;-60
2023/03/10 09:50:18;;;;;;;0.57;0.57;;;;;8.70;93734.00;;;;5050366;28;20212;-59
2023/03/10 09:52:47;;;;;;;0.50;0.50;;;;;8.90;93736.00;;;;5029537;28;20191;-60
2023/03/10 09:55:21;;;;;;;0.60;0.60;;;;;8.70;93740.00;;;;5032551;28;20201;-60
2023/03/10 09:57:51;;;;;;;0.60;0.60;;;;;8.40;93746.00;;;;5033078;28;20266;-60
2023/03/10 10:00:23;;;;;;;0.80;0.80;;;;;8.50;93740.00;;;;5032971;28;20232;-60
2023/03/10 10:02:57;;;;;;;0.50;0.50;;;;;8.60;93743.00;;;;5032111;28;20188;-59
2023/03/10 10:05:31;;;;;;;0.50;0.50;;;;;8.70;93732.00;;;;5032097;28;20236;-60
2023/03/10 10:08:02;;;;;;;0.50;0.50;;;;;8.30;93734.00;;;;5032766;28;20208;-60
2023/03/10 10:10:31;;;;;;;0.50;0.50;;;;;8.40;93741.00;;;;5032824;28;20233;-59
2023/03/10 10:13:03;;;;;;;1.30;0.80;;;;;8.40;93724.00;;;;5009832;28;20553;-59
2023/03/10 10:15:31;;;;;;;0.83;0.83;;;;;8.40;93726.00;;;;5032580;28;20572;-59
2023/03/10 10:18:08;;;;;;;0.50;0.50;;;;;8.70;93736.00;;;;5032538;28;20211;-60
2023/03/10 10:20:42;;;;;;;0.80;0.80;;;;;8.20;93737.00;;;;5029887;28;20644;-59
2023/03/10 10:23:18;;;;;;;0.60;0.60;;;;;7.90;93742.00;;;;5013164;28;20722;-59
2023/03/10 10:25:46;;;;;;;0.60;0.60;;;;;8.10;93726.00;;;;5032209;28;20210;-59
2023/03/10 10:28:21;;;;;;;0.50;0.50;;;;;8.30;93744.00;;;;5032225;28;20250;-60
2023/03/10 10:30:49;;;;;;;0.60;0.60;;;;;7.90;93741.00;;;;5032989;28;20746;-59
2023/03/10 10:33:17;;;;;;;0.60;0.60;;;;;8.00;93739.00;;;;5031816;28;20204;-60
2023/03/10 10:35:59;;;;;;;0.50;0.50;;;;;7.80;93745.00;;;;5032616;28;20196;-60
2023/03/10 10:38:30;;;;;;;0.60;0.60;;;;;8.00;93734.00;;;;5032218;28;20721;-60
2023/03/10 10:41:03;;;;;;;0.60;0.60;;;;;7.90;93735.00;;;;5032936;28;20286;-59
2023/03/10 10:43:31;;;;;;;0.80;0.80;;;;;8.00;93750.00;;;;5032059;28;20238;-58
2023/03/10 10:46:05;;;;;;;0.50;0.50;;;;;8.00;93740.00;;;;5030759;28;20295;-60
2023/03/10 10:48:37;;;;;;;0.50;0.50;;;;;7.80;93743.00;;;;5032024;28;20208;-61
2023/03/10 10:51:19;;;;;;;0.50;0.50;;;;;7.80;93738.00;;;;5032291;28;20225;-59
2023/03/10 10:53:47;;;;;;;0.60;0.60;;;;;8.10;93746.00;;;;5031913;28;20192;-61
2023/03/10 10:56:16;;;;;;;0.73;0.73;;;;;8.30;93741.00;;;;5031837;28;20216;-61
2023/03/10 10:58:45;;;;;;;0.80;0.80;;;;;8.00;93748.00;;;;5031781;28;20208;-59
2023/03/10 11:01:14;;;;;;;0.40;0.40;;;;;7.90;93759.00;;;;5032147;28;20201;-59
2023/03/10 11:03:43;;;;;;;0.50;0.50;;;;;8.20;93755.00;;;;5030186;28;20216;-59
2023/03/10 11:06:23;;;;;;;0.60;0.60;;;;;7.90;93777.00;;;;5031188;28;20221;-59
2023/03/10 11:08:51;;;;;;;0.60;0.60;;;;;8.00;93758.00;;;;5031538;28;20247;-60
2023/03/10 11:11:29;;;;;;;0.60;0.60;;;;;8.30;93761.00;;;;5032244;28;20667;-59
2023/03/10 11:14:07;;;;;;;0.43;0.43;;;;;8.20;93771.00;;;;5031638;28;20193;-60
2023/03/10 11:16:45;;;;;;;0.50;0.50;;;;;8.20;93777.00;;;;5031856;28;20203;-60
2023/03/10 11:19:23;;;;;;;0.50;0.50;;;;;8.20;93769.00;;;;5013767;28;20769;-59
2023/03/10 11:21:56;;;;;;;0.57;0.57;;;;;8.10;93768.00;;;;5031442;28;20192;-60
2023/03/10 11:24:33;;;;;;;0.50;0.50;;;;;8.20;93776.00;;;;5031195;28;20223;-60
2023/03/10 11:27:07;;;;;;;0.50;0.50;;;;;8.10;93781.00;;;;5031744;28;20223;-60
2023/03/10 11:29:48;;;;;;;0.60;0.60;;;;;7.90;93795.00;;;;5029735;28;20219;-61
2023/03/10 11:32:26;;;;;;;0.50;0.50;;;;;8.00;93786.00;;;;5030622;28;20189;-60
2023/03/10 11:34:54;;;;;;;0.53;0.53;;;;;8.10;93794.00;;;;5030579;28;20199;-58
2023/03/10 11:37:30;;;;;;;0.50;0.50;;;;;8.30;93778.00;;;;5031273;28;20193;-61
2023/03/10 11:40:18;;;;;;;0.87;0.87;;;;;8.60;93776.00;;;;5031276;28;20729;-60
2023/03/10 11:42:54;;;;;;;0.60;0.60;;;;;8.80;93779.00;;;;5031241;28;20207;-60
2023/03/10 11:45:28;;;;;;;0.50;0.50;;;;;8.20;93778.00;;;;5031355;28;20196;-60
2023/03/10 11:48:04;;;;;;;0.50;0.50;;;;;8.10;93788.00;;;;5049266;28;21011;-62
2023/03/10 11:50:39;;;;;;;0.60;0.60;;;;;8.50;93766.00;;;;5051049;28;20281;-63
2023/03/10 11:53:15;;;;;;;0.60;0.60;;;;;8.50;93756.00;;;;5026992;28;20242;-61
2023/03/10 11:55:44;;;;;;;0.60;0.60;;;;;8.60;93769.00;;;;5031017;28;20203;-61
2023/03/10 11:58:22;;;;;;;0.70;0.70;;;;;8.40;93774.00;;;;5013371;28;20204;-61
2023/03/10 12:00:52;;;;;;;0.60;0.60;;;;;8.40;93779.00;;;;5034498;28;20269;-61
2023/03/10 12:03:30;;;;;;;0.60;0.60;;;;;8.50;93778.00;;;;5032316;28;20201;-61
2023/03/10 12:05:59;;;;;;;0.60;0.60;;;;;8.50;93779.00;;;;5045285;28;20211;-58
2023/03/10 12:08:33;;;;;;;0.60;0.60;;;;;8.30;93758.00;;;;5050851;28;20250;-60
2023/03/10 12:11:04;;;;;;;0.50;0.50;;;;;8.30;93782.00;;;;5043341;28;20233;-62
2023/03/10 12:13:43;;;;;;;0.50;0.50;;;;;8.30;93763.00;;;;5033339;28;20266;-60
2023/03/10 12:16:15;;;;;;;0.60;0.60;;;;;8.10;93761.00;;;;5050902;28;20195;-59
2023/03/10 12:18:43;;;;;;;0.60;0.60;;;;;8.40;93771.00;;;;5045678;28;20200;-60
2023/03/10 12:21:16;;;;;;;0.60;0.60;;;;;8.60;93750.00;;;;5030546;28;20202;-60
2023/03/10 12:23:47;;;;;;;0.60;0.60;;;;;8.70;93755.00;;;;5031825;28;20212;-60
2023/03/10 12:26:15;;;;;;;0.60;0.60;;;;;8.90;93755.00;;;;5030329;28;20870;-59
2023/03/10 12:28:42;;;;;;;0.77;0.77;;;;;8.20;93754.00;;;;5030950;28;20307;-58
2023/03/10 12:31:14;;;;;;;0.50;0.50;;;;;8.40;93757.00;;;;5030680;28;20197;-59
2023/03/10 12:33:46;;;;;;;0.50;0.50;;;;;8.00;93762.00;;;;5013311;28;20211;-59
2023/03/10 12:36:25;;;;;;;0.50;0.50;;;;;8.00;93777.00;;;;5030742;28;20188;-58